WINNIPESAUKEE R @ TILTON: From 09/05/2020 05:00 to 09/20/2020 01:00

Date STAGE [FT] FLOW [CFS] AIR TEMPERATURE [DEGF]
09/19/2020 10:00 -- 266.0 --
09/19/2020 09:00 2.51 266.0 -11.3
09/19/2020 08:00 2.51 266.0 -17.1
09/19/2020 07:00 2.51 266.0 -18.1
09/19/2020 06:00 2.51 266.0 -18.5
09/19/2020 05:00 2.51 266.0 -18.5
09/19/2020 04:00 2.51 266.0 -19.8
09/19/2020 03:00 2.52 269.0 -19.6
09/19/2020 02:00 2.52 269.0 -20.5
09/19/2020 01:00 2.52 269.0 -19.7
09/19/2020 00:00 2.52 269.0 -18.9
09/18/2020 23:00 2.52 269.0 -22.3
09/18/2020 22:00 2.53 272.0 -22.1
09/18/2020 21:00 2.53 272.0 -17.2
09/18/2020 20:00 2.53 272.0 -6.2
09/18/2020 19:00 2.53 272.0 -6.4
09/18/2020 18:00 2.53 272.0 -5.8
09/18/2020 17:00 2.54 275.0 -5.2
09/18/2020 16:00 2.56 282.0 -7.0
09/18/2020 15:00 2.56 282.0 -8.3
09/18/2020 14:00 2.56 282.0 -12.0
09/18/2020 13:00 2.57 285.0 -15.1
09/18/2020 12:00 2.57 285.0 -18.3
09/18/2020 11:00 2.57 285.0 -20.8
09/18/2020 10:00 2.58 288.0 -20.8
09/18/2020 09:00 2.58 288.0 -20.4
09/18/2020 08:00 2.58 288.0 -22.6
09/18/2020 07:00 2.57 285.0 -22.9
09/18/2020 06:00 2.57 285.0 -21.2
09/18/2020 05:00 2.57 285.0 -20.9
09/18/2020 04:00 2.57 285.0 -20.8
09/18/2020 03:00 2.57 285.0 -21.6
09/18/2020 02:00 2.56 282.0 -21.1
09/18/2020 01:00 2.57 285.0 -20.6
09/18/2020 00:00 2.57 285.0 -20.4
09/17/2020 23:00 2.57 285.0 -19.3
09/17/2020 22:00 2.57 285.0 -18.9
09/17/2020 21:00 2.56 282.0 -18.7
09/17/2020 20:00 2.56 282.0 -18.3
09/17/2020 19:00 2.54 275.0 -17.8
09/17/2020 18:00 2.54 275.0 -15.8
09/17/2020 17:00 2.53 272.0 -15.3
09/17/2020 16:00 2.53 272.0 -14.5
09/17/2020 15:00 2.53 272.0 -14.2
09/17/2020 14:00 2.52 269.0 -13.6
09/17/2020 13:00 2.54 275.0 -14.6
09/17/2020 12:00 2.51 266.0 -15.4
09/17/2020 11:00 2.51 266.0 -18.1
09/17/2020 10:00 2.50 263.0 -20.7
09/17/2020 09:00 2.50 263.0 -23.8
09/17/2020 08:00 2.50 263.0 -25.0
09/17/2020 07:00 2.50 263.0 -24.3
09/17/2020 06:00 2.50 263.0 -23.3
09/17/2020 05:00 2.50 263.0 -22.6
09/17/2020 04:00 2.49 260.0 -22.2
09/17/2020 03:00 2.49 260.0 -21.0
09/17/2020 02:00 2.49 260.0 -21.0
09/17/2020 01:00 2.50 263.0 -21.0
09/17/2020 00:00 2.50 263.0 -20.7
09/16/2020 23:00 2.49 260.0 -19.2
09/16/2020 22:00 2.49 260.0 -18.3
09/16/2020 21:00 2.49 260.0 -17.3
09/16/2020 20:00 2.49 260.0 1.7
09/16/2020 19:00 2.44 245.0 1.9
09/16/2020 18:00 2.43 242.0 17.0
09/16/2020 17:00 2.43 242.0 32.8
09/16/2020 16:00 2.43 242.0 34.4
09/16/2020 15:00 2.43 242.0 35.0
09/16/2020 14:00 2.44 245.0 35.1
09/16/2020 13:00 2.44 245.0 34.6
09/16/2020 12:00 2.43 242.0 33.5
09/16/2020 11:00 2.45 248.0 33.0
09/16/2020 10:00 2.46 251.0 30.4
09/16/2020 09:00 2.46 251.0 26.9
09/16/2020 08:00 2.46 251.0 25.2
09/16/2020 07:00 2.46 251.0 25.4
09/16/2020 06:00 2.46 251.0 26.1
09/16/2020 05:00 2.46 251.0 25.8
09/16/2020 04:00 2.47 254.0 26.2
09/16/2020 03:00 2.47 254.0 26.7
09/16/2020 02:00 2.47 254.0 27.2
09/16/2020 01:00 2.46 251.0 27.5
09/16/2020 00:00 2.46 251.0 28.1
09/15/2020 23:00 2.47 254.0 28.9
09/15/2020 22:00 2.47 254.0 29.5
09/15/2020 21:00 2.47 254.0 30.6
09/15/2020 20:00 2.47 254.0 32.5
09/15/2020 19:00 2.47 254.0 33.9
09/15/2020 18:00 2.48 257.0 34.5
09/15/2020 17:00 2.48 257.0 34.2
09/15/2020 16:00 2.48 257.0 33.7
09/15/2020 15:00 2.49 260.0 31.6
09/15/2020 14:00 2.49 260.0 32.0
09/15/2020 13:00 2.49 260.0 32.6
09/15/2020 12:00 2.50 263.0 32.3
09/15/2020 11:00 2.50 263.0 32.2
09/15/2020 10:00 2.51 266.0 30.3
09/15/2020 09:00 2.52 269.0 27.1
09/15/2020 08:00 2.52 269.0 25.4
09/15/2020 07:00 2.53 272.0 25.8
09/15/2020 06:00 2.53 272.0 26.0
09/15/2020 05:00 2.53 272.0 26.7
09/15/2020 04:00 2.53 272.0 27.0
09/15/2020 03:00 2.53 272.0 27.8
09/15/2020 02:00 2.53 272.0 28.4
09/15/2020 01:00 2.53 272.0 29.7
09/15/2020 00:00 2.53 272.0 30.1
09/14/2020 23:00 2.53 272.0 31.2
09/14/2020 22:00 2.53 272.0 31.7
09/14/2020 21:00 2.53 272.0 32.3
09/14/2020 20:00 2.52 269.0 33.0
09/14/2020 19:00 2.52 269.0 34.0
09/14/2020 18:00 2.52 269.0 35.1
09/14/2020 17:00 2.52 269.0 36.0
09/14/2020 16:00 2.52 269.0 36.6
09/14/2020 15:00 2.51 266.0 37.1
09/14/2020 14:00 2.51 266.0 37.2
09/14/2020 13:00 2.51 266.0 37.4
09/14/2020 12:00 2.50 263.0 36.9
09/14/2020 11:00 2.51 266.0 37.1
09/14/2020 10:00 2.50 263.0 37.0
09/14/2020 09:00 2.49 260.0 35.5
09/14/2020 08:00 2.49 260.0 34.7
09/14/2020 07:00 2.49 260.0 35.1
09/14/2020 06:00 2.48 257.0 35.7
09/14/2020 05:00 2.50 263.0 35.5
09/14/2020 04:00 2.50 263.0 35.6
09/14/2020 03:00 2.50 263.0 35.6
09/14/2020 02:00 2.51 266.0 35.9
09/14/2020 01:00 2.52 269.0 36.7
09/14/2020 00:00 2.52 269.0 37.5
09/13/2020 23:00 2.53 272.0 37.7
09/13/2020 22:00 2.54 275.0 37.7
09/13/2020 21:00 2.54 275.0 37.9
09/13/2020 20:00 2.55 279.0 38.1
09/13/2020 19:00 2.56 282.0 38.4
09/13/2020 18:00 2.63 305.0 38.9
09/13/2020 17:00 2.65 312.0 38.8
09/13/2020 16:00 2.67 319.0 38.5
09/13/2020 15:00 2.60 295.0 38.1
09/13/2020 14:00 2.61 298.0 37.8
09/13/2020 13:00 2.63 305.0 37.2
09/13/2020 12:00 2.65 312.0 36.8
09/13/2020 11:00 2.67 319.0 35.1
09/13/2020 10:00 2.69 325.0 32.7
09/13/2020 09:00 2.72 336.0 30.7
09/13/2020 08:00 2.75 346.0 29.5
09/13/2020 07:00 2.77 353.0 29.3
09/13/2020 06:00 2.78 356.0 29.6
09/13/2020 05:00 2.78 356.0 29.6
09/13/2020 04:00 2.78 356.0 30.4
09/13/2020 03:00 2.78 356.0 30.6
09/13/2020 02:00 2.77 353.0 31.1
09/13/2020 01:00 2.77 353.0 31.8
09/13/2020 00:00 2.76 349.0 32.7
09/12/2020 23:00 2.75 346.0 34.1
09/12/2020 22:00 2.75 346.0 34.8
09/12/2020 21:00 2.74 342.0 35.5
09/12/2020 20:00 2.73 339.0 36.6
09/12/2020 19:00 2.72 336.0 37.4
09/12/2020 18:00 2.71 332.0 37.9
09/12/2020 17:00 2.70 329.0 38.0
09/12/2020 16:00 2.69 325.0 38.2
09/12/2020 15:00 2.67 319.0 37.8
09/12/2020 14:00 2.65 312.0 37.5
09/12/2020 13:00 2.64 308.0 37.3
09/12/2020 12:00 2.62 301.0 37.4
09/12/2020 11:00 2.60 295.0 35.4
09/12/2020 10:00 2.57 285.0 34.4
09/12/2020 09:00 2.55 279.0 31.5
09/12/2020 08:00 2.52 269.0 27.9
09/12/2020 07:00 2.49 260.0 28.1
09/12/2020 06:00 2.45 248.0 28.8
09/12/2020 05:00 2.43 242.0 29.0
09/12/2020 04:00 2.45 248.0 29.8
09/12/2020 03:00 2.47 254.0 30.1
09/12/2020 02:00 2.46 251.0 30.6
09/12/2020 01:00 2.46 251.0 31.2
09/12/2020 00:00 2.46 251.0 31.9
09/11/2020 23:00 2.46 251.0 32.7
09/11/2020 22:00 2.46 251.0 33.1
09/11/2020 21:00 2.46 251.0 33.8
09/11/2020 20:00 2.46 251.0 34.8
09/11/2020 19:00 2.46 251.0 32.9
09/11/2020 18:00 2.46 251.0 35.6
09/11/2020 17:00 2.46 251.0 35.9
09/11/2020 16:00 2.46 251.0 36.8
09/11/2020 15:00 2.46 251.0 35.1
09/11/2020 14:00 2.46 251.0 36.3
09/11/2020 13:00 2.46 251.0 37.0
09/11/2020 12:00 2.46 251.0 36.1
09/11/2020 11:00 2.46 251.0 35.8
09/11/2020 10:00 2.46 251.0 34.8
09/11/2020 09:00 2.46 251.0 33.9
09/11/2020 08:00 2.46 251.0 33.8
09/11/2020 07:00 2.46 251.0 34.3
09/11/2020 06:00 2.46 251.0 35.3
09/11/2020 05:00 2.46 251.0 35.0
09/11/2020 04:00 2.46 251.0 35.1
09/11/2020 03:00 2.46 251.0 34.8
09/11/2020 02:00 2.46 251.0 36.4
09/11/2020 01:00 2.46 251.0 37.1
09/11/2020 00:00 2.47 254.0 38.1
09/10/2020 23:00 2.46 251.0 36.6
09/10/2020 22:00 2.47 254.0 34.9
09/10/2020 21:00 2.46 251.0 34.7
09/10/2020 20:00 2.46 251.0 40.1
09/10/2020 19:00 2.46 251.0 41.0
09/10/2020 18:00 2.46 251.0 41.3
09/10/2020 17:00 2.46 251.0 41.1
09/10/2020 16:00 2.46 251.0 40.6
09/10/2020 15:00 2.46 251.0 40.2
09/10/2020 14:00 2.46 251.0 40.5
09/10/2020 13:00 2.46 251.0 41.0
09/10/2020 12:00 2.46 251.0 40.7
09/10/2020 11:00 2.46 251.0 40.8
09/10/2020 10:00 2.46 251.0 39.5
09/10/2020 09:00 2.46 251.0 37.1
09/10/2020 08:00 2.46 251.0 36.4
09/10/2020 07:00 2.46 251.0 36.3
09/10/2020 06:00 2.46 251.0 36.5
09/10/2020 05:00 2.46 251.0 36.6
09/10/2020 04:00 2.46 251.0 36.9
09/10/2020 03:00 2.46 251.0 37.1
09/10/2020 02:00 2.46 251.0 37.4
09/10/2020 01:00 2.46 251.0 37.6
09/10/2020 00:00 2.46 251.0 38.0
09/09/2020 23:00 2.46 251.0 38.5
09/09/2020 22:00 2.46 251.0 39.4
09/09/2020 21:00 2.46 251.0 40.1
09/09/2020 20:00 2.46 251.0 41.1
09/09/2020 19:00 2.46 251.0 41.8
09/09/2020 18:00 2.46 251.0 42.3
09/09/2020 17:00 2.46 251.0 42.4
09/09/2020 16:00 2.46 251.0 42.6
09/09/2020 15:00 2.46 251.0 42.5
09/09/2020 14:00 2.46 251.0 42.4
09/09/2020 13:00 2.46 251.0 42.3
09/09/2020 12:00 2.46 251.0 41.5
09/09/2020 11:00 2.46 251.0 40.6
09/09/2020 10:00 2.46 251.0 38.8
09/09/2020 09:00 2.46 251.0 37.4
09/09/2020 08:00 2.46 251.0 37.1
09/09/2020 07:00 2.46 251.0 37.1
09/09/2020 06:00 2.46 251.0 37.3
09/09/2020 05:00 2.46 251.0 37.4
09/09/2020 04:00 2.46 251.0 37.8
09/09/2020 03:00 2.46 251.0 38.4
09/09/2020 02:00 2.46 251.0 38.5
09/09/2020 01:00 2.46 251.0 38.6
09/09/2020 00:00 2.46 251.0 38.9
09/08/2020 23:00 2.46 251.0 39.2
09/08/2020 22:00 2.46 251.0 39.9
09/08/2020 21:00 2.46 251.0 40.5
09/08/2020 20:00 2.46 251.0 41.5
09/08/2020 19:00 2.46 251.0 42.5
09/08/2020 18:00 2.46 251.0 42.4
09/08/2020 17:00 2.46 251.0 42.5
09/08/2020 16:00 2.46 251.0 42.3
09/08/2020 15:00 2.46 251.0 42.3
09/08/2020 14:00 2.46 251.0 42.1
09/08/2020 13:00 2.46 251.0 42.0
09/08/2020 12:00 2.46 251.0 41.1
09/08/2020 11:00 2.46 251.0 40.2
09/08/2020 10:00 2.46 251.0 39.1
09/08/2020 09:00 2.46 251.0 37.6
09/08/2020 08:00 2.46 251.0 36.3
09/08/2020 07:00 2.46 251.0 36.3
09/08/2020 06:00 2.46 251.0 36.6
09/08/2020 05:00 2.47 254.0 37.0
09/08/2020 04:00 2.46 251.0 37.3
09/08/2020 03:00 2.47 254.0 37.9
09/08/2020 02:00 2.47 254.0 38.4
09/08/2020 01:00 2.47 254.0 39.0
09/08/2020 00:00 2.47 254.0 39.3
09/07/2020 23:00 2.47 254.0 39.9
09/07/2020 22:00 2.47 254.0 40.6
09/07/2020 21:00 2.46 251.0 40.7
09/07/2020 20:00 2.47 254.0 41.0
09/07/2020 19:00 2.47 254.0 41.2
09/07/2020 18:00 2.47 254.0 41.6
09/07/2020 17:00 2.44 245.0 41.8
09/07/2020 16:00 2.47 254.0 41.9
09/07/2020 15:00 2.46 251.0 41.8
09/07/2020 14:00 2.46 251.0 41.1
09/07/2020 13:00 2.45 248.0 40.6
09/07/2020 12:00 2.44 245.0 40.2
09/07/2020 11:00 2.45 248.0 39.6
09/07/2020 10:00 2.45 248.0 38.3
09/07/2020 09:00 2.45 248.0 27.7
09/07/2020 08:00 2.46 251.0 34.5
09/07/2020 07:00 2.46 251.0 34.3
09/07/2020 06:00 2.46 251.0 34.1
09/07/2020 05:00 2.47 254.0 33.8
09/07/2020 04:00 2.47 254.0 33.5
09/07/2020 03:00 2.47 254.0 33.1
09/07/2020 02:00 2.47 254.0 33.0
09/07/2020 01:00 2.47 254.0 33.1
09/07/2020 00:00 2.47 254.0 33.6
09/06/2020 23:00 2.47 254.0 34.2
09/06/2020 22:00 2.47 254.0 34.9
09/06/2020 21:00 2.47 254.0 35.9
09/06/2020 20:00 2.47 254.0 37.5
09/06/2020 19:00 2.47 254.0 38.9
09/06/2020 18:00 2.47 254.0 38.5
09/06/2020 17:00 2.47 254.0 38.0
09/06/2020 16:00 2.47 254.0 37.5
09/06/2020 15:00 2.47 254.0 36.4
09/06/2020 14:00 2.47 254.0 35.4
09/06/2020 13:00 2.47 254.0 34.0
09/06/2020 12:00 2.46 251.0 31.2
09/06/2020 11:00 2.46 251.0 19.4
09/06/2020 10:00 2.46 251.0 5.4
09/06/2020 09:00 2.46 251.0 -4.9
09/06/2020 08:00 2.46 251.0 -8.8
09/06/2020 07:00 2.47 254.0 -13.5
09/06/2020 06:00 2.47 254.0 -18.2
09/06/2020 05:00 2.47 254.0 -22.4
09/06/2020 04:00 2.47 254.0 -22.1
09/06/2020 03:00 2.47 254.0 -21.1
09/06/2020 02:00 2.47 254.0 -20.2
09/06/2020 01:00 2.47 254.0 -19.5
09/06/2020 00:00 2.47 254.0 -18.9
09/05/2020 23:00 2.47 254.0 -16.9
09/05/2020 22:00 2.47 254.0 -17.9
09/05/2020 21:00 -- -- --
09/05/2020 20:00 -- -- --
09/05/2020 19:00 -- -- --
09/05/2020 18:00 -- -- --
09/05/2020 17:00 -- -- --
09/05/2020 16:00 -- -- --
09/05/2020 15:00 -- -- --
09/05/2020 14:00 -- -- --
09/05/2020 13:00 -- -- --
09/05/2020 12:00 -- -- --
09/05/2020 11:00 -- -- --
09/05/2020 10:00 -- -- --
09/05/2020 09:00 -- -- --
09/05/2020 08:00 -- -- --
09/05/2020 07:00 -- -- --
09/05/2020 06:00 -- -- --
09/05/2020 05:00 -- -- --